createdAt,value
2019-03-03T00:01:12.752Z,5.17
2019-03-03T00:03:39.858Z,6.00
2019-03-03T00:06:06.899Z,6.00
2019-03-03T00:08:34.187Z,6.25
2019-03-03T00:11:01.225Z,6.60
2019-03-03T00:13:28.200Z,6.70
2019-03-03T00:15:55.225Z,7.70
2019-03-03T00:18:22.276Z,6.00
2019-03-03T00:20:49.263Z,7.20
2019-03-03T00:23:16.234Z,6.20
2019-03-03T00:25:43.285Z,6.57
2019-03-03T00:28:10.193Z,6.20
2019-03-03T00:30:37.696Z,6.43
2019-03-03T00:33:04.714Z,7.20
2019-03-03T00:35:31.740Z,5.70
2019-03-03T00:38:04.042Z,7.40
2019-03-03T00:40:38.661Z,7.00
2019-03-03T00:43:07.501Z,6.17
2019-03-03T00:45:54.530Z,5.50
2019-03-03T00:48:32.319Z,6.87
2019-03-03T00:51:07.092Z,6.40
2019-03-03T00:53:38.432Z,6.15
2019-03-03T00:56:13.269Z,6.50
2019-03-03T00:58:45.097Z,6.50
2019-03-03T01:01:13.948Z,6.10
2019-03-03T01:03:57.861Z,6.20
2019-03-03T01:06:43.684Z,6.77
2019-03-03T01:09:54.456Z,6.67
2019-03-03T01:12:32.695Z,6.10
2019-03-03T01:15:16.984Z,7.10
2019-03-03T01:17:48.403Z,6.80
2019-03-03T01:20:26.129Z,6.53
2019-03-03T01:22:55.045Z,7.60
2019-03-03T01:25:22.022Z,7.33
2019-03-03T01:27:49.058Z,6.73
2019-03-03T01:30:16.076Z,6.80
2019-03-03T01:32:42.972Z,6.47
2019-03-03T01:35:10.084Z,6.60
2019-03-03T01:37:37.052Z,6.80
2019-03-03T01:40:05.409Z,6.42
2019-03-03T01:42:32.418Z,7.08
2019-03-03T01:44:59.405Z,7.15
2019-03-03T01:47:26.536Z,7.03
2019-03-03T01:49:53.476Z,6.80
2019-03-03T01:52:20.548Z,6.08
2019-03-03T01:54:47.544Z,7.05
2019-03-03T01:57:14.493Z,6.53
2019-03-03T01:59:41.495Z,6.33
2019-03-03T02:02:08.505Z,7.00
2019-03-03T02:04:35.457Z,6.25
2019-03-03T02:07:02.504Z,7.67
2019-03-03T02:09:29.428Z,7.30
2019-03-03T02:11:56.499Z,7.20
2019-03-03T02:14:23.422Z,7.40
2019-03-03T02:16:50.297Z,7.35
2019-03-03T02:19:17.235Z,7.30
2019-03-03T02:21:44.264Z,7.13
2019-03-03T02:24:11.129Z,6.50
2019-03-03T02:26:38.072Z,6.92
2019-03-03T02:29:05.528Z,7.80
2019-03-03T02:31:32.507Z,6.63
2019-03-03T02:33:59.458Z,8.00
2019-03-03T02:36:26.532Z,6.17
2019-03-03T02:38:53.539Z,7.40
2019-03-03T02:41:20.557Z,7.13
2019-03-03T02:43:47.538Z,7.07
2019-03-03T02:46:14.453Z,6.73
2019-03-03T02:48:41.578Z,6.28
2019-03-03T02:51:08.615Z,6.97
2019-03-03T02:53:35.623Z,6.50
2019-03-03T02:56:02.672Z,6.72
2019-03-03T02:58:29.698Z,5.92
2019-03-03T03:01:10.515Z,6.50
2019-03-03T03:03:37.421Z,6.57
2019-03-03T03:06:18.205Z,5.97
2019-03-03T03:08:47.157Z,5.63
2019-03-03T03:11:18.894Z,6.40
2019-03-03T03:13:56.994Z,5.83
2019-03-03T03:16:25.867Z,6.60
2019-03-03T03:19:00.831Z,6.45
2019-03-03T03:21:46.781Z,5.83
2019-03-03T03:24:18.902Z,6.67
2019-03-03T03:26:57.033Z,6.50
2019-03-03T03:29:25.874Z,6.87
2019-03-03T03:32:00.582Z,7.40
2019-03-03T03:34:29.525Z,7.00
2019-03-03T03:36:58.455Z,8.30
2019-03-03T03:39:45.282Z,6.58
2019-03-03T03:42:17.404Z,7.33
2019-03-03T03:44:46.215Z,7.03
2019-03-03T03:47:15.148Z,6.20
2019-03-03T03:49:44.021Z,6.73
2019-03-03T03:52:31.074Z,6.00
2019-03-03T03:55:16.744Z,6.30
2019-03-03T03:57:48.378Z,5.65
2019-03-03T04:00:35.537Z,5.70
2019-03-03T04:03:07.465Z,5.03
2019-03-03T04:05:42.613Z,5.75
2019-03-03T04:08:14.191Z,5.05
2019-03-03T04:10:45.867Z,4.47
2019-03-03T04:13:18.673Z,5.17
2019-03-03T04:15:47.626Z,5.07
2019-03-03T04:18:33.132Z,5.40
2019-03-03T04:21:02.046Z,4.55
2019-03-03T04:23:30.908Z,4.72
2019-03-03T04:25:59.883Z,5.40
2019-03-03T04:28:34.873Z,6.20
2019-03-03T04:31:06.458Z,5.60
2019-03-03T04:33:37.940Z,5.03
2019-03-03T04:36:09.533Z,5.28
2019-03-03T04:38:41.632Z,5.70
2019-03-03T04:41:10.468Z,5.17
2019-03-03T04:43:39.361Z,5.83
2019-03-03T04:46:17.348Z,5.50
2019-03-03T04:48:55.193Z,5.22
2019-03-03T04:51:24.159Z,6.92
2019-03-03T04:53:55.982Z,7.00
2019-03-03T04:56:30.738Z,6.95
2019-03-03T04:58:59.756Z,6.25
2019-03-03T05:01:28.549Z,7.15
2019-03-03T05:03:57.484Z,6.45
2019-03-03T05:06:26.327Z,6.58
2019-03-03T05:09:13.412Z,6.30
2019-03-03T05:12:39.251Z,6.53
2019-03-03T05:15:14.043Z,6.62
2019-03-03T05:17:42.903Z,6.28
2019-03-03T05:20:11.870Z,6.97
2019-03-03T05:22:38.838Z,5.60
2019-03-03T05:25:06.183Z,5.90
2019-03-03T05:27:33.230Z,5.30
2019-03-03T05:30:00.330Z,5.08
2019-03-03T05:32:28.623Z,6.42
2019-03-03T05:34:55.617Z,5.85
2019-03-03T05:37:22.624Z,6.28
2019-03-03T05:39:49.672Z,5.50
2019-03-03T05:42:16.653Z,5.47
2019-03-03T05:44:43.549Z,5.40
2019-03-03T05:47:10.523Z,4.92
2019-03-03T05:49:37.509Z,5.10
2019-03-03T05:52:04.478Z,4.97
2019-03-03T05:54:31.451Z,5.45
2019-03-03T05:56:58.568Z,5.10
2019-03-03T05:59:25.532Z,5.70
2019-03-03T06:01:52.596Z,5.20
2019-03-03T06:04:19.600Z,5.90
2019-03-03T06:06:46.760Z,5.70
2019-03-03T06:09:13.705Z,6.03
2019-03-03T06:11:40.886Z,5.70
2019-03-03T06:14:07.939Z,6.17
2019-03-03T06:16:34.846Z,5.63
2019-03-03T06:19:01.763Z,5.00
2019-03-03T06:21:28.811Z,7.03
2019-03-03T06:23:55.751Z,5.93
2019-03-03T06:26:22.784Z,5.77
2019-03-03T06:28:49.731Z,5.50
2019-03-03T06:31:17.530Z,5.43
2019-03-03T06:33:44.886Z,6.63
2019-03-03T06:36:11.942Z,6.03
2019-03-03T06:38:38.896Z,6.00
2019-03-03T06:41:05.983Z,6.03
2019-03-03T06:43:32.878Z,5.90
2019-03-03T06:45:59.828Z,5.87
2019-03-03T06:48:26.712Z,5.60
2019-03-03T06:50:53.751Z,5.40
2019-03-03T06:53:20.765Z,5.47
2019-03-03T06:55:47.831Z,5.50
2019-03-03T06:58:14.836Z,6.17
2019-03-03T07:00:41.840Z,6.83
2019-03-03T07:03:08.932Z,4.70
2019-03-03T07:05:35.883Z,5.57
2019-03-03T07:08:02.800Z,6.27
2019-03-03T07:10:30.914Z,5.80
2019-03-03T07:12:57.970Z,6.00
2019-03-03T07:15:25.184Z,5.33
2019-03-03T07:17:52.427Z,5.03
2019-03-03T07:20:19.468Z,5.30
2019-03-03T07:22:46.638Z,5.30
2019-03-03T07:25:13.654Z,5.57
2019-03-03T07:27:40.854Z,5.80
2019-03-03T07:30:10.266Z,6.37
2019-03-03T07:32:39.125Z,5.30
2019-03-03T07:35:07.849Z,4.93
2019-03-03T07:37:35.051Z,5.40
2019-03-03T07:40:02.078Z,5.60
2019-03-03T07:42:29.609Z,5.10
2019-03-03T07:44:56.951Z,5.00
2019-03-03T07:47:23.932Z,5.90
2019-03-03T07:49:51.172Z,5.37
2019-03-03T07:52:18.460Z,5.30
2019-03-03T07:54:47.343Z,5.33
2019-03-03T07:57:14.450Z,5.97
2019-03-03T07:59:41.429Z,4.40
2019-03-03T08:02:08.442Z,4.67
2019-03-03T08:04:35.376Z,4.70
2019-03-03T08:07:02.345Z,4.87
2019-03-03T08:09:29.415Z,4.45
2019-03-03T08:11:56.459Z,4.63
2019-03-03T08:14:23.442Z,5.10
2019-03-03T08:16:50.494Z,4.97
2019-03-03T08:19:17.455Z,4.97
2019-03-03T08:21:44.446Z,4.90
2019-03-03T08:24:11.403Z,4.27
2019-03-03T08:26:38.299Z,4.50
2019-03-03T08:29:05.242Z,4.13
2019-03-03T08:31:32.188Z,4.97
2019-03-03T08:33:59.104Z,5.03
2019-03-03T08:36:26.080Z,5.20
2019-03-03T08:38:53.055Z,7.77
2019-03-03T08:41:19.975Z,4.97
2019-03-03T08:43:51.796Z,5.60
2019-03-03T08:46:23.479Z,4.80
2019-03-03T08:48:52.430Z,5.57
2019-03-03T08:51:36.141Z,4.20
2019-03-03T08:54:05.096Z,5.30
2019-03-03T08:56:50.494Z,5.73
2019-03-03T08:59:28.643Z,4.80
2019-03-03T09:02:12.943Z,4.90
2019-03-03T09:04:41.963Z,4.90
2019-03-03T09:07:10.911Z,4.70
2019-03-03T09:09:45.953Z,4.67
2019-03-03T09:12:20.838Z,4.37
2019-03-03T09:14:55.264Z,4.23
2019-03-03T09:17:47.109Z,4.60
2019-03-03T09:20:21.902Z,4.43
2019-03-03T09:23:00.008Z,4.97
2019-03-03T09:25:47.077Z,5.00
2019-03-03T09:28:25.306Z,5.30
2019-03-03T09:31:01.513Z,5.23
2019-03-03T09:33:39.656Z,4.80
2019-03-03T09:36:08.477Z,4.90
2019-03-03T09:38:49.710Z,5.93
2019-03-03T09:41:35.505Z,4.90
2019-03-03T09:44:04.586Z,5.80
2019-03-03T09:46:50.251Z,4.67
2019-03-03T09:49:22.221Z,5.07
2019-03-03T09:52:01.335Z,4.87
2019-03-03T09:54:36.328Z,5.60
2019-03-03T09:57:05.544Z,4.70
2019-03-03T09:59:37.266Z,5.00
2019-03-03T10:02:06.268Z,4.73
2019-03-03T10:04:41.037Z,5.20
2019-03-03T10:07:09.980Z,5.07
2019-03-03T10:09:55.635Z,4.97
2019-03-03T10:12:36.881Z,5.00
2019-03-03T10:15:09.509Z,6.47
2019-03-03T10:17:56.815Z,4.93
2019-03-03T10:20:28.503Z,4.77
2019-03-03T10:23:06.612Z,4.73
2019-03-03T10:25:38.933Z,5.20
2019-03-03T10:28:07.845Z,4.47
2019-03-03T10:30:36.704Z,5.00
2019-03-03T10:33:06.551Z,4.60
2019-03-03T10:35:38.274Z,5.67
2019-03-03T10:38:07.344Z,5.10
2019-03-03T10:40:42.083Z,4.53
2019-03-03T10:43:23.170Z,5.77
2019-03-03T10:46:01.204Z,4.20
2019-03-03T10:48:33.526Z,5.20
2019-03-03T10:51:05.350Z,4.27
2019-03-03T10:53:51.065Z,5.23
2019-03-03T10:56:24.217Z,5.47
2019-03-03T10:58:53.341Z,4.57
2019-03-03T11:01:22.310Z,4.40
2019-03-03T11:04:08.311Z,5.43
2019-03-03T11:06:41.361Z,5.43
2019-03-03T11:09:35.909Z,6.07
2019-03-03T11:12:17.188Z,4.30
2019-03-03T11:14:46.189Z,5.27
2019-03-03T11:17:15.251Z,5.03
2019-03-03T11:19:53.244Z,5.33
2019-03-03T11:22:34.120Z,4.53
2019-03-03T11:25:05.854Z,6.37
2019-03-03T11:27:41.002Z,4.83
2019-03-03T11:30:28.907Z,6.63
2019-03-03T11:33:00.864Z,6.53
2019-03-03T11:35:35.938Z,5.60
2019-03-03T11:38:05.330Z,5.87
2019-03-03T11:40:46.678Z,6.27
2019-03-03T11:43:15.905Z,4.80
2019-03-03T11:45:47.527Z,5.90
2019-03-03T11:48:35.385Z,5.00
2019-03-03T11:51:04.306Z,5.20
2019-03-03T11:53:36.021Z,5.10
2019-03-03T11:56:20.518Z,6.10
2019-03-03T11:59:06.543Z,4.90
2019-03-03T12:01:47.841Z,5.30
2019-03-03T12:04:19.865Z,5.87
2019-03-03T12:06:51.742Z,5.73
2019-03-03T12:09:29.762Z,5.43
2019-03-03T12:12:01.495Z,5.60
2019-03-03T12:14:30.561Z,5.10
2019-03-03T12:17:05.640Z,5.53
2019-03-03T12:19:37.230Z,5.27
2019-03-03T12:22:24.345Z,4.80
2019-03-03T12:24:53.293Z,4.13
2019-03-03T12:27:25.461Z,4.67
2019-03-03T12:30:00.463Z,5.10
2019-03-03T12:32:38.261Z,5.07
2019-03-03T12:35:08.430Z,4.87
2019-03-03T12:37:37.522Z,5.10
2019-03-03T12:40:16.583Z,5.03
2019-03-03T12:42:45.734Z,4.80
2019-03-03T12:45:14.889Z,5.10
2019-03-03T12:48:00.828Z,4.80
2019-03-03T12:50:47.791Z,4.63
2019-03-03T12:53:25.637Z,4.70
2019-03-03T12:56:00.483Z,4.70
2019-03-03T12:58:29.565Z,4.77
2019-03-03T13:01:14.846Z,4.17
2019-03-03T13:03:44.026Z,4.40
2019-03-03T13:06:24.056Z,3.90
2019-03-03T13:09:01.478Z,4.10
2019-03-03T13:11:42.324Z,3.87
2019-03-03T13:14:29.203Z,4.00
2019-03-03T13:17:12.880Z,3.93
2019-03-03T13:19:53.913Z,4.10
2019-03-03T13:22:39.455Z,3.80
2019-03-03T13:25:23.617Z,4.60
2019-03-03T13:27:52.604Z,3.97
2019-03-03T13:30:35.731Z,4.60
2019-03-03T13:33:21.919Z,4.60
2019-03-03T13:36:03.169Z,3.70
2019-03-03T13:38:38.928Z,5.60
2019-03-03T13:41:07.789Z,4.23
2019-03-03T13:43:34.868Z,3.73
2019-03-03T13:46:02.165Z,4.10
2019-03-03T13:48:29.163Z,3.60
2019-03-03T13:50:56.215Z,4.60
2019-03-03T13:53:23.278Z,4.10
2019-03-03T13:55:50.294Z,4.20
2019-03-03T13:58:17.356Z,3.93
2019-03-03T14:00:44.425Z,4.00
2019-03-03T14:03:11.447Z,3.57
2019-03-03T14:05:38.556Z,3.20
2019-03-03T14:08:05.655Z,3.43
2019-03-03T14:10:32.709Z,2.80
2019-03-03T14:12:59.835Z,3.20
2019-03-03T14:15:26.833Z,3.40
2019-03-03T14:17:53.962Z,3.13
2019-03-03T14:20:21.841Z,3.93
2019-03-03T14:22:49.789Z,3.00
2019-03-03T14:25:16.954Z,3.13
2019-03-03T14:27:43.993Z,2.93
2019-03-03T14:30:13.325Z,2.80
2019-03-03T14:32:40.294Z,3.03
2019-03-03T14:35:08.964Z,3.03
2019-03-03T14:37:36.002Z,3.40
2019-03-03T14:40:04.277Z,2.63
2019-03-03T14:42:31.244Z,2.70
2019-03-03T14:44:58.214Z,2.50
2019-03-03T14:47:25.407Z,2.20
2019-03-03T14:49:52.446Z,2.13
2019-03-03T14:52:19.455Z,2.20
2019-03-03T14:54:46.365Z,2.17
2019-03-03T14:57:13.400Z,2.37
2019-03-03T14:59:40.334Z,2.50
2019-03-03T15:02:07.469Z,2.13
2019-03-03T15:04:34.642Z,2.40
2019-03-03T15:07:01.718Z,2.20
2019-03-03T15:09:28.754Z,2.70
2019-03-03T15:11:55.730Z,2.97
2019-03-03T15:14:22.853Z,2.93
2019-03-03T15:16:49.960Z,3.17
2019-03-03T15:19:16.980Z,3.37
2019-03-03T15:21:44.291Z,2.87
2019-03-03T15:24:11.517Z,2.97
2019-03-03T15:26:38.687Z,3.30
2019-03-03T15:29:06.701Z,3.00
2019-03-03T15:31:37.621Z,3.43
2019-03-03T15:34:03.009Z,3.27
2019-03-03T15:36:30.239Z,3.00
2019-03-03T15:38:57.236Z,3.40
2019-03-03T15:41:24.321Z,3.43
2019-03-03T15:43:51.520Z,3.70
2019-03-03T15:46:18.528Z,3.33
2019-03-03T15:48:45.639Z,3.33
2019-03-03T15:51:12.605Z,3.20
2019-03-03T15:53:39.711Z,3.57
2019-03-03T15:56:06.861Z,3.00
2019-03-03T15:58:33.905Z,3.30
2019-03-03T16:01:01.023Z,3.80
2019-03-03T16:03:27.975Z,3.60
2019-03-03T16:05:55.080Z,4.17
2019-03-03T16:08:22.083Z,3.47
2019-03-03T16:10:49.106Z,3.70
2019-03-03T16:13:16.122Z,3.77
2019-03-03T16:15:43.343Z,3.20
2019-03-03T16:18:10.363Z,3.23
2019-03-03T16:20:37.453Z,3.80
2019-03-03T16:23:04.662Z,3.57
2019-03-03T16:25:31.704Z,3.17
2019-03-03T16:27:58.738Z,3.63
2019-03-03T16:30:28.385Z,3.40
2019-03-03T16:32:55.514Z,3.10
2019-03-03T16:35:22.524Z,3.50
2019-03-03T16:37:49.645Z,3.30
2019-03-03T16:40:18.833Z,3.27
2019-03-03T16:42:45.803Z,3.27
2019-03-03T16:45:13.584Z,3.83
2019-03-03T16:47:40.570Z,3.40
2019-03-03T16:50:09.776Z,3.13
2019-03-03T16:52:36.956Z,3.13
2019-03-03T16:55:04.164Z,3.63
2019-03-03T16:57:31.248Z,2.80
2019-03-03T16:59:58.272Z,3.40
2019-03-03T17:02:25.314Z,3.30
2019-03-03T17:04:52.468Z,4.20
2019-03-03T17:07:19.424Z,3.23
2019-03-03T17:09:46.453Z,2.97
2019-03-03T17:12:13.573Z,3.13
2019-03-03T17:14:40.531Z,2.83
2019-03-03T17:17:07.658Z,2.97
2019-03-03T17:19:34.641Z,3.10
2019-03-03T17:22:01.717Z,3.17
2019-03-03T17:24:28.740Z,3.33
2019-03-03T17:26:55.647Z,3.27
2019-03-03T17:29:22.696Z,3.00
2019-03-03T17:31:50.213Z,3.10
2019-03-03T17:34:17.548Z,3.17
2019-03-03T17:36:45.145Z,3.73
2019-03-03T17:39:12.174Z,3.47
2019-03-03T17:41:39.405Z,3.80
2019-03-03T17:44:06.425Z,4.90
2019-03-03T17:46:33.496Z,4.53
2019-03-03T17:49:00.580Z,3.17
2019-03-03T17:51:27.604Z,4.33
2019-03-03T17:53:54.989Z,3.90
2019-03-03T17:56:22.024Z,3.50
2019-03-03T17:58:49.082Z,3.03
2019-03-03T18:01:16.205Z,3.33
2019-03-03T18:03:43.255Z,4.57
2019-03-03T18:06:10.454Z,4.10
2019-03-03T18:08:37.456Z,3.47
2019-03-03T18:11:04.328Z,3.43
2019-03-03T18:13:31.378Z,3.70
2019-03-03T18:15:58.401Z,3.23
2019-03-03T18:18:25.437Z,4.40
2019-03-03T18:20:52.399Z,4.90
2019-03-03T18:23:19.380Z,3.33
2019-03-03T18:25:46.445Z,3.43
2019-03-03T18:28:13.343Z,3.27
2019-03-03T18:30:40.435Z,2.90
2019-03-03T18:33:07.408Z,4.53
2019-03-03T18:35:34.588Z,3.03
2019-03-03T18:38:01.555Z,4.03
2019-03-03T18:40:28.685Z,3.33
2019-03-03T18:42:55.673Z,4.13
2019-03-03T18:45:22.706Z,4.47
2019-03-03T18:47:49.941Z,4.27
2019-03-03T18:50:17.450Z,4.77
2019-03-03T18:52:44.477Z,3.97
2019-03-03T18:55:11.537Z,3.13
2019-03-03T18:57:38.841Z,3.13
2019-03-03T19:00:09.637Z,3.17
2019-03-03T19:02:36.807Z,4.57
2019-03-03T19:05:03.975Z,3.20
2019-03-03T19:07:30.952Z,3.30
2019-03-03T19:10:00.035Z,3.37
2019-03-03T19:12:27.177Z,4.10
2019-03-03T19:14:55.108Z,4.40
2019-03-03T19:17:22.089Z,4.10
2019-03-03T19:19:49.343Z,4.00
2019-03-03T19:22:16.973Z,3.57
2019-03-03T19:24:44.282Z,3.37
2019-03-03T19:27:11.240Z,3.80
2019-03-03T19:29:38.224Z,3.77
2019-03-03T19:32:05.370Z,3.53
2019-03-03T19:34:32.641Z,3.70
2019-03-03T19:36:59.721Z,4.50
2019-03-03T19:39:26.750Z,3.87
2019-03-03T19:41:53.788Z,5.00
2019-03-03T19:44:20.846Z,3.50
2019-03-03T19:46:48.891Z,3.10
2019-03-03T19:49:16.060Z,5.20
2019-03-03T19:51:43.601Z,3.77
2019-03-03T19:54:10.855Z,4.20
2019-03-03T19:56:37.985Z,4.30
2019-03-03T19:59:05.051Z,3.90
2019-03-03T20:01:32.140Z,4.10
2019-03-03T20:03:59.268Z,4.20
2019-03-03T20:06:26.447Z,4.30
2019-03-03T20:08:54.533Z,4.17
2019-03-03T20:11:21.619Z,3.90
2019-03-03T20:13:49.302Z,4.53
2019-03-03T20:16:16.385Z,4.43
2019-03-03T20:18:45.978Z,3.77
2019-03-03T20:21:13.017Z,4.00
2019-03-03T20:23:40.514Z,3.97
2019-03-03T20:26:08.048Z,3.50
2019-03-03T20:28:35.290Z,4.20
2019-03-03T20:31:03.476Z,4.50
2019-03-03T20:33:31.631Z,4.67
2019-03-03T20:35:59.235Z,4.00
2019-03-03T20:38:26.369Z,3.90
2019-03-03T20:40:53.431Z,4.10
2019-03-03T20:43:20.821Z,3.60
2019-03-03T20:45:48.184Z,4.30
2019-03-03T20:48:15.336Z,3.80
2019-03-03T20:50:42.515Z,3.60
2019-03-03T20:53:09.609Z,3.90
2019-03-03T20:55:36.883Z,5.80
2019-03-03T20:58:04.164Z,4.00
2019-03-03T21:00:31.469Z,3.87
2019-03-03T21:02:58.839Z,3.80
2019-03-03T21:05:25.994Z,4.47
2019-03-03T21:07:53.056Z,4.90
2019-03-03T21:10:20.575Z,3.83
2019-03-03T21:12:47.802Z,3.90
2019-03-03T21:15:14.769Z,3.83
2019-03-03T21:17:41.854Z,4.00
2019-03-03T21:20:10.840Z,4.00
2019-03-03T21:22:37.945Z,3.70
2019-03-03T21:25:05.713Z,4.20
2019-03-03T21:27:32.761Z,4.87
2019-03-03T21:29:59.835Z,4.50
2019-03-03T21:32:26.756Z,3.77
2019-03-03T21:34:54.021Z,4.10
2019-03-03T21:37:21.050Z,4.97
2019-03-03T21:39:48.205Z,3.50
2019-03-03T21:42:15.256Z,3.93
2019-03-03T21:44:42.515Z,3.87
2019-03-03T21:47:09.555Z,4.60
2019-03-03T21:49:37.299Z,4.30
2019-03-03T21:52:04.542Z,3.90
2019-03-03T21:54:31.593Z,3.40
2019-03-03T21:56:58.684Z,5.47
2019-03-03T21:59:25.771Z,3.70
2019-03-03T22:01:53.034Z,4.40
2019-03-03T22:04:20.182Z,3.67
2019-03-03T22:06:47.245Z,4.37
2019-03-03T22:09:14.248Z,3.50
2019-03-03T22:11:41.623Z,3.40
2019-03-03T22:14:08.754Z,3.27
2019-03-03T22:16:35.826Z,3.20
2019-03-03T22:19:02.838Z,3.57
2019-03-03T22:21:29.874Z,3.73
2019-03-03T22:23:56.853Z,3.50
2019-03-03T22:26:23.880Z,3.90
2019-03-03T22:28:50.854Z,3.77
2019-03-03T22:31:18.137Z,3.33
2019-03-03T22:33:45.113Z,2.97
2019-03-03T22:36:12.173Z,3.60
2019-03-03T22:38:39.159Z,2.73
2019-03-03T22:41:06.261Z,3.37
2019-03-03T22:43:33.391Z,3.03
2019-03-03T22:46:01.330Z,3.23
2019-03-03T22:48:28.455Z,3.90
2019-03-03T22:50:56.194Z,2.93
2019-03-03T22:53:23.238Z,3.70
2019-03-03T22:55:50.869Z,3.53
2019-03-03T22:58:18.188Z,3.60
2019-03-03T23:01:13.632Z,3.40
2019-03-03T23:03:52.841Z,3.57
2019-03-03T23:06:24.351Z,3.00
2019-03-03T23:09:15.820Z,2.87
2019-03-03T23:11:55.600Z,3.10
2019-03-03T23:14:48.784Z,3.70
2019-03-03T23:18:01.092Z,3.30
2019-03-03T23:20:37.435Z,3.60
2019-03-03T23:24:04.846Z,2.47
2019-03-03T23:26:32.359Z,3.50
2019-03-03T23:28:59.401Z,3.27
2019-03-03T23:31:26.444Z,3.20
2019-03-03T23:33:53.669Z,2.97
2019-03-03T23:36:21.222Z,3.30
2019-03-03T23:38:48.993Z,3.43
2019-03-03T23:41:16.324Z,2.97
2019-03-03T23:43:43.387Z,4.50
2019-03-03T23:46:10.449Z,3.20
2019-03-03T23:48:37.493Z,4.20
2019-03-03T23:51:04.434Z,3.43
2019-03-03T23:53:33.216Z,2.80
2019-03-03T23:56:00.274Z,2.87
2019-03-03T23:58:27.237Z,3.57
